createdAt,value
2023-05-03T00:00:51.431Z,1022.69
2023-05-03T00:01:51.453Z,1022.68
2023-05-03T00:02:51.421Z,1022.72
2023-05-03T00:03:51.403Z,1022.69
2023-05-03T00:04:51.422Z,1022.69
2023-05-03T00:05:51.475Z,1022.70
2023-05-03T00:06:51.474Z,1022.74
2023-05-03T00:07:51.370Z,1022.73
2023-05-03T00:08:51.390Z,1022.73
2023-05-03T00:09:51.349Z,1022.73
2023-05-03T00:10:51.346Z,1022.74
2023-05-03T00:11:51.326Z,1022.76
2023-05-03T00:12:51.317Z,1022.80
2023-05-03T00:13:51.312Z,1022.74
2023-05-03T00:14:51.298Z,1022.77
2023-05-03T00:15:51.363Z,1022.80
2023-05-03T00:16:51.318Z,1022.75
2023-05-03T00:17:51.328Z,1022.78
2023-05-03T00:18:51.267Z,1022.78
2023-05-03T00:19:51.256Z,1022.73
2023-05-03T00:20:51.270Z,1022.75
2023-05-03T00:21:51.233Z,1022.73
2023-05-03T00:22:51.237Z,1022.71
2023-05-03T00:23:51.214Z,1022.70
2023-05-03T00:24:51.207Z,1022.73
2023-05-03T00:25:51.195Z,1022.73
2023-05-03T00:26:51.181Z,1022.73
2023-05-03T00:27:51.175Z,1022.76
2023-05-03T00:28:51.170Z,1022.78
2023-05-03T00:29:51.176Z,1022.77
2023-05-03T00:30:51.198Z,1022.75
2023-05-03T00:31:51.142Z,1022.74
2023-05-03T00:32:51.186Z,1022.76
2023-05-03T00:33:51.117Z,1022.77
2023-05-03T00:34:51.111Z,1022.75
2023-05-03T00:35:51.100Z,1022.76
2023-05-03T00:36:51.091Z,1022.78
2023-05-03T00:37:51.160Z,1022.76
2023-05-03T00:38:51.080Z,1022.75
2023-05-03T00:39:51.063Z,1022.80
2023-05-03T00:40:51.061Z,1022.81
2023-05-03T00:41:51.049Z,1022.77
2023-05-03T00:42:51.035Z,1022.76
2023-05-03T00:43:51.027Z,1022.79
2023-05-03T00:44:51.417Z,1022.76
2023-05-03T00:45:51.148Z,1022.77
2023-05-03T00:46:51.032Z,1022.75
2023-05-03T00:47:51.027Z,1022.76
2023-05-03T00:48:50.971Z,1022.75
2023-05-03T00:49:50.968Z,1022.74
2023-05-03T00:50:50.958Z,1022.72
2023-05-03T00:51:50.953Z,1022.75
2023-05-03T00:52:50.937Z,1022.73
2023-05-03T00:53:50.928Z,1022.74
2023-05-03T00:54:50.920Z,1022.76
2023-05-03T00:55:50.914Z,1022.72
2023-05-03T00:56:52.159Z,1022.72
2023-05-03T00:57:50.894Z,1022.71
2023-05-03T00:58:50.879Z,1022.72
2023-05-03T00:59:50.869Z,1022.71
2023-05-03T01:00:50.858Z,1022.73
2023-05-03T01:01:50.967Z,1022.79
2023-05-03T01:02:50.886Z,1022.74
2023-05-03T01:03:50.961Z,1022.74
2023-05-03T01:04:50.828Z,1022.72
2023-05-03T01:05:50.808Z,1022.76
2023-05-03T01:06:50.843Z,1022.74
2023-05-03T01:07:50.799Z,1022.77
2023-05-03T01:08:50.830Z,1022.78
2023-05-03T01:09:50.770Z,1022.79
2023-05-03T01:10:50.787Z,1022.74
2023-05-03T01:11:50.748Z,1022.79
2023-05-03T01:12:50.739Z,1022.79
2023-05-03T01:13:50.758Z,1022.78
2023-05-03T01:14:50.725Z,1022.76
2023-05-03T01:15:50.818Z,1022.74
2023-05-03T01:16:50.696Z,1022.76
2023-05-03T01:17:50.755Z,1022.77
2023-05-03T01:18:50.678Z,1022.76
2023-05-03T01:19:50.680Z,1022.78
2023-05-03T01:20:50.663Z,1022.77
2023-05-03T01:21:50.693Z,1022.78
2023-05-03T01:22:50.669Z,1022.83
2023-05-03T01:23:50.627Z,1022.83
2023-05-03T01:24:50.619Z,1022.84
2023-05-03T01:25:50.610Z,1022.82
2023-05-03T01:26:50.602Z,1022.84
2023-05-03T01:27:50.604Z,1022.84
2023-05-03T01:28:50.600Z,1022.84
2023-05-03T01:29:50.597Z,1022.85
2023-05-03T01:30:50.563Z,1022.87
2023-05-03T01:31:50.587Z,1022.85
2023-05-03T01:32:50.582Z,1022.87
2023-05-03T01:33:50.529Z,1022.87
2023-05-03T01:34:50.520Z,1022.90
2023-05-03T01:35:50.510Z,1022.90
2023-05-03T01:36:50.515Z,1022.90
2023-05-03T01:37:50.493Z,1022.92
2023-05-03T01:38:50.476Z,1022.91
2023-05-03T01:39:50.468Z,1022.93
2023-05-03T01:40:50.459Z,1022.91
2023-05-03T01:41:50.460Z,1022.91
2023-05-03T01:42:50.445Z,1022.93
2023-05-03T01:43:50.428Z,1022.90
2023-05-03T01:44:50.419Z,1022.87
2023-05-03T01:45:50.430Z,1022.87
2023-05-03T01:46:50.397Z,1022.87
2023-05-03T01:47:50.435Z,1022.85
2023-05-03T01:48:50.380Z,1022.84
2023-05-03T01:49:50.382Z,1022.91
2023-05-03T01:50:50.357Z,1022.91
2023-05-03T01:51:50.341Z,1022.90
2023-05-03T01:52:50.337Z,1022.91
2023-05-03T01:53:50.326Z,1022.93
2023-05-03T01:54:50.314Z,1022.92
2023-05-03T01:55:50.306Z,1022.91
2023-05-03T01:56:50.296Z,1022.90
2023-05-03T01:57:50.286Z,1022.88
2023-05-03T01:58:50.267Z,1022.84
2023-05-03T01:59:50.276Z,1022.84
2023-05-03T02:00:50.288Z,1022.84
2023-05-03T02:01:50.243Z,1022.83
2023-05-03T02:02:50.302Z,1022.89
2023-05-03T02:03:50.219Z,1022.89
2023-05-03T02:04:50.392Z,1022.87
2023-05-03T02:05:50.204Z,1022.91
2023-05-03T02:06:50.233Z,1022.84
2023-05-03T02:07:50.180Z,1022.86
2023-05-03T02:08:50.174Z,1022.91
2023-05-03T02:09:50.154Z,1022.88
2023-05-03T02:10:50.148Z,1022.93
2023-05-03T02:11:50.138Z,1022.95
2023-05-03T02:12:50.135Z,1022.97
2023-05-03T02:13:50.137Z,1022.95
2023-05-03T02:14:50.121Z,1022.93
2023-05-03T02:15:50.129Z,1022.96
2023-05-03T02:16:50.122Z,1022.96
2023-05-03T02:17:50.134Z,1023.01
2023-05-03T02:18:50.077Z,1023.01
2023-05-03T02:19:50.055Z,1022.97
2023-05-03T02:20:50.055Z,1023.00
2023-05-03T02:21:50.040Z,1023.03
2023-05-03T02:22:50.041Z,1022.99
2023-05-03T02:23:50.022Z,1023.00
2023-05-03T02:24:50.002Z,1023.01
2023-05-03T02:25:49.988Z,1023.03
2023-05-03T02:26:49.982Z,1023.03
2023-05-03T02:27:49.976Z,1023.04
2023-05-03T02:28:49.966Z,1023.03
2023-05-03T02:29:49.955Z,1023.08
2023-05-03T02:30:49.976Z,1023.08
2023-05-03T02:31:49.934Z,1023.12
2023-05-03T02:32:49.952Z,1023.11
2023-05-03T02:33:49.903Z,1023.12
2023-05-03T02:34:49.892Z,1023.13
2023-05-03T02:35:49.883Z,1023.17
2023-05-03T02:36:49.874Z,1023.15
2023-05-03T02:37:49.874Z,1023.19
2023-05-03T02:38:49.847Z,1023.18
2023-05-03T02:39:49.833Z,1023.18
2023-05-03T02:40:49.886Z,1023.18
2023-05-03T02:41:49.819Z,1023.17
2023-05-03T02:42:49.806Z,1023.17
2023-05-03T02:43:49.802Z,1023.18
2023-05-03T02:44:49.781Z,1023.16
2023-05-03T02:45:49.808Z,1023.18
2023-05-03T02:46:49.798Z,1023.17
2023-05-03T02:47:49.791Z,1023.17
2023-05-03T02:48:49.753Z,1023.17
2023-05-03T02:49:49.726Z,1023.21
2023-05-03T02:50:49.715Z,1023.20
2023-05-03T02:51:49.713Z,1023.21
2023-05-03T02:52:49.707Z,1023.18
2023-05-03T02:53:49.695Z,1023.20
2023-05-03T02:54:49.709Z,1023.21
2023-05-03T02:55:49.681Z,1023.23
2023-05-03T02:56:49.649Z,1023.25
2023-05-03T02:57:49.646Z,1023.23
2023-05-03T02:58:49.632Z,1023.22
2023-05-03T02:59:49.618Z,1023.22
2023-05-03T03:00:49.609Z,1023.26
2023-05-03T03:01:49.664Z,1023.25
2023-05-03T03:02:49.613Z,1023.23
2023-05-03T03:03:49.668Z,1023.27
2023-05-03T03:04:49.568Z,1023.29
2023-05-03T03:05:49.553Z,1023.29
2023-05-03T03:06:49.589Z,1023.31
2023-05-03T03:07:49.537Z,1023.33
2023-05-03T03:08:49.521Z,1023.32
2023-05-03T03:09:49.508Z,1023.35
2023-05-03T03:10:49.501Z,1023.31
2023-05-03T03:11:49.504Z,1023.32
2023-05-03T03:12:49.495Z,1023.33
2023-05-03T03:13:49.602Z,1023.30
2023-05-03T03:14:49.446Z,1023.29
2023-05-03T03:15:49.461Z,1023.33
2023-05-03T03:16:49.427Z,1023.28
2023-05-03T03:17:49.486Z,1023.30
2023-05-03T03:18:49.411Z,1023.33
2023-05-03T03:19:49.411Z,1023.38
2023-05-03T03:20:49.391Z,1023.39
2023-05-03T03:21:49.378Z,1023.40
2023-05-03T03:22:49.390Z,1023.34
2023-05-03T03:23:49.349Z,1023.36
2023-05-03T03:24:49.353Z,1023.34
2023-05-03T03:25:49.349Z,1023.34
2023-05-03T03:26:49.324Z,1023.36
2023-05-03T03:27:49.310Z,1023.36
2023-05-03T03:28:49.305Z,1023.37
2023-05-03T03:29:49.285Z,1023.35
2023-05-03T03:30:49.270Z,1023.38
2023-05-03T03:31:49.282Z,1023.39
2023-05-03T03:32:49.315Z,1023.42
2023-05-03T03:33:49.257Z,1023.41
2023-05-03T03:34:49.224Z,1023.40
2023-05-03T03:35:49.222Z,1023.40
2023-05-03T03:36:49.215Z,1023.42
2023-05-03T03:37:49.205Z,1023.44
2023-05-03T03:38:49.186Z,1023.44
2023-05-03T03:39:49.187Z,1023.47
2023-05-03T03:40:49.159Z,1023.50
2023-05-03T03:41:49.158Z,1023.49
2023-05-03T03:42:49.163Z,1023.53
2023-05-03T03:43:49.131Z,1023.56
2023-05-03T03:44:49.119Z,1023.54
2023-05-03T03:45:49.123Z,1023.50
2023-05-03T03:46:49.138Z,1023.51
2023-05-03T03:47:50.861Z,1023.52
2023-05-03T03:48:49.081Z,1023.50
2023-05-03T03:49:49.069Z,1023.56
2023-05-03T03:50:49.056Z,1023.56
2023-05-03T03:51:49.037Z,1023.58
2023-05-03T03:52:49.042Z,1023.55
2023-05-03T03:53:49.022Z,1023.56
2023-05-03T03:54:49.009Z,1023.56
2023-05-03T03:55:48.999Z,1023.60
2023-05-03T03:56:48.990Z,1023.58
2023-05-03T03:57:48.971Z,1023.59
2023-05-03T03:58:48.962Z,1023.60
2023-05-03T03:59:48.962Z,1023.66
2023-05-03T04:00:48.942Z,1023.65
2023-05-03T04:01:48.965Z,1023.67
2023-05-03T04:02:48.988Z,1023.65
2023-05-03T04:03:48.983Z,1023.67
2023-05-03T04:04:48.901Z,1023.69
2023-05-03T04:05:48.890Z,1023.69
2023-05-03T04:06:48.980Z,1023.68
2023-05-03T04:07:48.877Z,1023.72
2023-05-03T04:08:48.848Z,1023.73
2023-05-03T04:09:48.849Z,1023.74
2023-05-03T04:10:48.835Z,1023.68
2023-05-03T04:11:48.822Z,1023.75
2023-05-03T04:12:48.814Z,1023.74
2023-05-03T04:13:48.800Z,1023.74
2023-05-03T04:14:48.785Z,1023.75
2023-05-03T04:15:48.777Z,1023.77
2023-05-03T04:16:48.783Z,1023.76
2023-05-03T04:17:48.770Z,1023.76
2023-05-03T04:18:48.747Z,1023.77
2023-05-03T04:19:48.766Z,1023.76
2023-05-03T04:20:48.724Z,1023.76
2023-05-03T04:21:48.714Z,1023.76
2023-05-03T04:22:48.708Z,1023.82
2023-05-03T04:23:48.694Z,1023.86
2023-05-03T04:24:48.682Z,1023.87
2023-05-03T04:25:48.870Z,1023.87
2023-05-03T04:26:48.658Z,1023.91
2023-05-03T04:27:48.652Z,1023.92
2023-05-03T04:28:48.634Z,1023.95
2023-05-03T04:29:48.627Z,1023.96
2023-05-03T04:30:48.654Z,1023.98
2023-05-03T04:31:48.603Z,1023.96
2023-05-03T04:32:48.637Z,1023.97
2023-05-03T04:33:48.590Z,1023.96
2023-05-03T04:34:49.540Z,1023.98
2023-05-03T04:35:48.566Z,1023.99
2023-05-03T04:36:48.552Z,1024.00
2023-05-03T04:37:48.542Z,1024.04
2023-05-03T04:38:48.524Z,1024.05
2023-05-03T04:39:48.530Z,1024.08
2023-05-03T04:40:48.507Z,1024.11
2023-05-03T04:41:48.512Z,1024.13
2023-05-03T04:42:48.492Z,1024.17
2023-05-03T04:43:48.476Z,1024.12
2023-05-03T04:44:48.465Z,1024.13
2023-05-03T04:45:48.488Z,1024.15
2023-05-03T04:46:50.743Z,1024.13
2023-05-03T04:47:48.483Z,1024.13
2023-05-03T04:48:48.439Z,1024.16
2023-05-03T04:49:48.413Z,1024.17
2023-05-03T04:50:48.409Z,1024.16
2023-05-03T04:51:48.412Z,1024.22
2023-05-03T04:52:48.387Z,1024.20
2023-05-03T04:53:48.507Z,1024.18
2023-05-03T04:54:48.371Z,1024.22
2023-05-03T04:55:48.362Z,1024.22
2023-05-03T04:56:48.513Z,1024.23
2023-05-03T04:57:48.351Z,1024.21
2023-05-03T04:58:48.334Z,1024.18
2023-05-03T04:59:48.336Z,1024.18
2023-05-03T05:00:48.319Z,1024.19
2023-05-03T05:01:48.406Z,1024.23
2023-05-03T05:02:48.432Z,1024.25
2023-05-03T05:03:48.443Z,1024.23
2023-05-03T05:04:48.272Z,1024.26
2023-05-03T05:05:48.269Z,1024.27
2023-05-03T05:06:48.301Z,1024.27
2023-05-03T05:07:48.247Z,1024.30
2023-05-03T05:08:48.242Z,1024.27
2023-05-03T05:09:48.220Z,1024.26
2023-05-03T05:10:48.231Z,1024.25
2023-05-03T05:11:48.217Z,1024.29
2023-05-03T05:12:48.208Z,1024.28
2023-05-03T05:13:48.198Z,1024.27
2023-05-03T05:14:48.182Z,1024.27
2023-05-03T05:15:48.206Z,1024.30
2023-05-03T05:16:48.244Z,1024.28
2023-05-03T05:17:48.311Z,1024.31
2023-05-03T05:18:48.638Z,1024.28
2023-05-03T05:19:48.147Z,1024.30
2023-05-03T05:20:48.143Z,1024.28
2023-05-03T05:21:48.143Z,1024.27
2023-05-03T05:22:48.122Z,1024.27
2023-05-03T05:23:48.127Z,1024.29
2023-05-03T05:24:48.106Z,1024.29
2023-05-03T05:25:48.105Z,1024.26
2023-05-03T05:26:48.090Z,1024.29
2023-05-03T05:27:48.100Z,1024.29
2023-05-03T05:28:48.082Z,1024.32
2023-05-03T05:29:48.069Z,1024.32
2023-05-03T05:30:48.069Z,1024.31
2023-05-03T05:31:48.097Z,1024.32
2023-05-03T05:32:48.082Z,1024.37
2023-05-03T05:33:48.041Z,1024.38
2023-05-03T05:34:48.037Z,1024.39
2023-05-03T05:35:48.020Z,1024.42
2023-05-03T05:36:48.070Z,1024.43
2023-05-03T05:37:48.017Z,1024.46
2023-05-03T05:38:48.019Z,1024.47
2023-05-03T05:39:48.011Z,1024.46
2023-05-03T05:40:47.997Z,1024.45
2023-05-03T05:41:47.983Z,1024.43
2023-05-03T05:42:47.973Z,1024.43
2023-05-03T05:43:47.967Z,1024.44
2023-05-03T05:44:47.962Z,1024.46
2023-05-03T05:45:47.968Z,1024.46
2023-05-03T05:46:47.995Z,1024.51
2023-05-03T05:47:47.964Z,1024.51
2023-05-03T05:48:47.932Z,1024.53
2023-05-03T05:49:47.949Z,1024.53
2023-05-03T05:50:47.918Z,1024.50
2023-05-03T05:51:47.914Z,1024.52
2023-05-03T05:52:47.909Z,1024.54
2023-05-03T05:53:47.904Z,1024.54
2023-05-03T05:54:47.898Z,1024.55
2023-05-03T05:55:47.904Z,1024.55
2023-05-03T05:56:47.887Z,1024.57
2023-05-03T05:57:47.884Z,1024.57
2023-05-03T05:58:47.873Z,1024.56
2023-05-03T05:59:47.879Z,1024.54
2023-05-03T06:00:47.865Z,1024.59
2023-05-03T06:01:47.940Z,1024.57
2023-05-03T06:02:47.976Z,1024.58
2023-05-03T06:03:47.848Z,1024.58
2023-05-03T06:04:47.877Z,1024.56
2023-05-03T06:05:47.902Z,1024.58
2023-05-03T06:06:47.921Z,1024.60
2023-05-03T06:07:47.828Z,1024.62
2023-05-03T06:08:47.832Z,1024.63
2023-05-03T06:09:47.816Z,1024.65
2023-05-03T06:10:47.816Z,1024.62
2023-05-03T06:11:47.805Z,1024.67
2023-05-03T06:12:47.802Z,1024.71
2023-05-03T06:13:47.803Z,1024.69
2023-05-03T06:15:01.469Z,1024.67
2023-05-03T06:15:47.785Z,1024.68
2023-05-03T06:16:47.866Z,1024.70
2023-05-03T06:17:47.836Z,1024.67
2023-05-03T06:18:47.771Z,1024.71
2023-05-03T06:19:47.770Z,1024.70
2023-05-03T06:20:47.760Z,1024.69
2023-05-03T06:21:47.763Z,1024.72
2023-05-03T06:22:47.744Z,1024.72
2023-05-03T06:23:47.743Z,1024.72
2023-05-03T06:24:47.837Z,1024.74
2023-05-03T06:25:47.745Z,1024.77
2023-05-03T06:26:47.733Z,1024.71
2023-05-03T06:27:47.728Z,1024.70
2023-05-03T06:28:47.749Z,1024.75
2023-05-03T06:29:47.735Z,1024.78
2023-05-03T06:30:47.740Z,1024.73
2023-05-03T06:31:47.706Z,1024.76
2023-05-03T06:32:47.751Z,1024.71
2023-05-03T06:33:47.710Z,1024.70
2023-05-03T06:34:47.705Z,1024.71
2023-05-03T06:35:47.691Z,1024.72
2023-05-03T06:36:47.690Z,1024.74
2023-05-03T06:37:47.695Z,1024.75
2023-05-03T06:38:47.703Z,1024.74
2023-05-03T06:39:47.703Z,1024.74
2023-05-03T06:40:47.669Z,1024.73
2023-05-03T06:41:47.665Z,1024.72
2023-05-03T06:42:47.666Z,1024.69
2023-05-03T06:43:47.659Z,1024.67
2023-05-03T06:44:47.654Z,1024.70
2023-05-03T06:45:47.654Z,1024.69
2023-05-03T06:46:47.693Z,1024.70
2023-05-03T06:47:47.693Z,1024.69
2023-05-03T06:48:47.699Z,1024.75
2023-05-03T06:49:47.637Z,1024.71
2023-05-03T06:50:47.626Z,1024.70
2023-05-03T06:51:47.626Z,1024.68
2023-05-03T06:52:47.618Z,1024.66
2023-05-03T06:53:47.623Z,1024.67
2023-05-03T06:54:47.615Z,1024.70
2023-05-03T06:55:47.613Z,1024.74
2023-05-03T06:56:47.709Z,1024.72
2023-05-03T06:57:47.614Z,1024.71
2023-05-03T06:58:47.612Z,1024.73
2023-05-03T06:59:47.589Z,1024.75
2023-05-03T07:00:47.589Z,1024.74
2023-05-03T07:01:47.614Z,1024.75
2023-05-03T07:02:47.644Z,1024.75
2023-05-03T07:03:47.728Z,1024.74
2023-05-03T07:04:47.587Z,1024.72
2023-05-03T07:05:48.248Z,1024.72
2023-05-03T07:06:55.993Z,1024.74
2023-05-03T07:07:47.574Z,1024.72
2023-05-03T07:08:47.560Z,1024.74
2023-05-03T07:09:47.556Z,1024.71
2023-05-03T07:10:47.569Z,1024.69
2023-05-03T07:11:47.554Z,1024.71
2023-05-03T07:12:47.560Z,1024.73
2023-05-03T07:13:47.559Z,1024.68
2023-05-03T07:14:47.540Z,1024.68
2023-05-03T07:15:47.610Z,1024.73
2023-05-03T07:16:47.614Z,1024.70
2023-05-03T07:17:47.587Z,1024.73
2023-05-03T07:18:47.539Z,1024.74
2023-05-03T07:19:47.536Z,1024.71
2023-05-03T07:20:47.537Z,1024.77
2023-05-03T07:21:47.531Z,1024.73
2023-05-03T07:22:47.526Z,1024.74
2023-05-03T07:23:47.528Z,1024.74
2023-05-03T07:24:47.543Z,1024.71
2023-05-03T07:25:47.547Z,1024.74
2023-05-03T07:26:48.991Z,1024.75
2023-05-03T07:27:47.524Z,1024.73
2023-05-03T07:28:47.517Z,1024.73
2023-05-03T07:29:47.518Z,1024.72
2023-05-03T07:30:47.518Z,1024.73
2023-05-03T07:31:47.524Z,1024.77
2023-05-03T07:32:47.609Z,1024.80
2023-05-03T07:33:47.666Z,1024.78
2023-05-03T07:34:47.510Z,1024.80
2023-05-03T07:35:47.510Z,1024.79
2023-05-03T07:36:47.522Z,1024.81
2023-05-03T07:37:47.508Z,1024.81
2023-05-03T07:38:47.500Z,1024.77
2023-05-03T07:39:47.507Z,1024.75
2023-05-03T07:40:47.500Z,1024.73
2023-05-03T07:41:47.502Z,1024.76
2023-05-03T07:42:47.508Z,1024.80
2023-05-03T07:43:47.494Z,1024.80
2023-05-03T07:44:47.588Z,1024.80
2023-05-03T07:45:47.517Z,1024.83
2023-05-03T07:46:47.551Z,1024.86
2023-05-03T07:47:47.550Z,1024.86
2023-05-03T07:48:47.496Z,1024.82
2023-05-03T07:49:47.490Z,1024.80
2023-05-03T07:50:47.488Z,1024.85
2023-05-03T07:51:47.497Z,1024.86
2023-05-03T07:52:47.508Z,1024.85
2023-05-03T07:53:47.496Z,1024.88
2023-05-03T07:54:47.669Z,1024.88
2023-05-03T07:55:47.490Z,1024.83
2023-05-03T07:56:47.486Z,1024.81
2023-05-03T07:57:47.494Z,1024.86
2023-05-03T07:58:51.010Z,1024.86
2023-05-03T07:59:47.526Z,1024.92
2023-05-03T08:00:47.491Z,1024.93
2023-05-03T08:01:47.490Z,1024.91
2023-05-03T08:02:47.659Z,1024.89
2023-05-03T08:03:47.673Z,1024.91
2023-05-03T08:04:47.901Z,1024.91
2023-05-03T08:05:47.590Z,1024.90
2023-05-03T08:06:47.519Z,1024.89
2023-05-03T08:07:47.510Z,1024.86
2023-05-03T08:08:47.559Z,1024.84
2023-05-03T08:09:47.492Z,1024.84
2023-05-03T08:10:47.497Z,1024.86
2023-05-03T08:11:47.515Z,1024.83
2023-05-03T08:12:47.493Z,1024.87
2023-05-03T08:13:47.493Z,1024.75
2023-05-03T08:14:47.500Z,1024.68
2023-05-03T08:15:47.549Z,1024.66
2023-05-03T08:16:47.503Z,1024.61
2023-05-03T08:17:47.542Z,1024.61
2023-05-03T08:18:47.505Z,1024.63
2023-05-03T08:19:47.524Z,1024.58
2023-05-03T08:20:47.504Z,1024.60
2023-05-03T08:21:47.499Z,1024.65
2023-05-03T08:22:47.500Z,1024.62
2023-05-03T08:23:47.497Z,1024.60
2023-05-03T08:24:47.498Z,1024.62
2023-05-03T08:25:47.501Z,1024.58
2023-05-03T08:26:47.490Z,1024.59
2023-05-03T08:27:47.506Z,1024.61
2023-05-03T08:28:47.492Z,1024.59
2023-05-03T08:29:47.490Z,1024.58
2023-05-03T08:30:47.488Z,1024.59
2023-05-03T08:31:47.593Z,1024.61
2023-05-03T08:32:47.506Z,1024.60
2023-05-03T08:33:47.479Z,1024.59
2023-05-03T08:34:47.484Z,1024.57
2023-05-03T08:35:49.257Z,1024.60
2023-05-03T08:36:47.471Z,1024.61
2023-05-03T08:37:47.463Z,1024.61
2023-05-03T08:38:47.463Z,1024.61
2023-05-03T08:39:47.457Z,1024.60
2023-05-03T08:40:47.462Z,1024.57
2023-05-03T08:41:47.448Z,1024.59
2023-05-03T08:42:47.445Z,1024.59
2023-05-03T08:43:47.440Z,1024.54
2023-05-03T08:44:47.439Z,1024.56
2023-05-03T08:45:47.436Z,1024.58
2023-05-03T08:46:47.466Z,1024.65
2023-05-03T08:47:47.445Z,1024.62
2023-05-03T08:48:47.414Z,1024.62
2023-05-03T08:49:47.422Z,1024.64
2023-05-03T08:50:47.402Z,1024.59
2023-05-03T08:51:47.440Z,1024.60
2023-05-03T08:52:47.390Z,1024.62
2023-05-03T08:53:47.387Z,1024.72
2023-05-03T08:54:47.373Z,1024.86
2023-05-03T08:55:47.383Z,1024.82
2023-05-03T08:56:47.378Z,1024.68
2023-05-03T08:57:47.366Z,1024.62
2023-05-03T08:58:47.358Z,1024.64
2023-05-03T08:59:47.363Z,1024.64
2023-05-03T09:00:47.351Z,1024.63
2023-05-03T09:01:47.371Z,1024.67
2023-05-03T09:02:47.390Z,1024.69
2023-05-03T09:03:49.492Z,1024.70
2023-05-03T09:04:47.331Z,1024.67
2023-05-03T09:05:47.336Z,1024.68
2023-05-03T09:06:47.373Z,1024.69
2023-05-03T09:07:47.310Z,1024.68
2023-05-03T09:08:47.331Z,1024.69
2023-05-03T09:09:47.523Z,1024.67
2023-05-03T09:10:47.299Z,1024.67
2023-05-03T09:11:47.286Z,1024.68
2023-05-03T09:12:47.293Z,1024.72
2023-05-03T09:13:47.276Z,1024.69
2023-05-03T09:14:47.283Z,1024.70
2023-05-03T09:15:47.278Z,1024.67
2023-05-03T09:16:49.830Z,1024.63
2023-05-03T09:17:47.317Z,1024.60
2023-05-03T09:18:47.256Z,1024.64
2023-05-03T09:19:47.239Z,1024.66
2023-05-03T09:20:47.241Z,1024.66
2023-05-03T09:21:47.390Z,1024.68
2023-05-03T09:22:47.243Z,1024.64
2023-05-03T09:23:47.223Z,1024.64
2023-05-03T09:24:47.223Z,1024.61
2023-05-03T09:25:47.218Z,1024.61
2023-05-03T09:26:47.266Z,1024.64
2023-05-03T09:27:47.194Z,1024.63
2023-05-03T09:28:47.189Z,1024.63
2023-05-03T09:29:47.181Z,1024.61
2023-05-03T09:30:47.202Z,1024.65
2023-05-03T09:31:47.203Z,1024.59
2023-05-03T09:32:47.195Z,1024.62
2023-05-03T09:33:47.169Z,1024.60
2023-05-03T09:34:47.162Z,1024.59
2023-05-03T09:35:47.146Z,1024.60
2023-05-03T09:36:47.166Z,1024.61
2023-05-03T09:37:47.144Z,1024.59
2023-05-03T09:38:47.131Z,1024.56
2023-05-03T09:39:47.129Z,1024.61
2023-05-03T09:40:47.147Z,1024.59
2023-05-03T09:41:47.131Z,1024.60
2023-05-03T09:42:47.125Z,1024.58
2023-05-03T09:43:47.104Z,1024.56
2023-05-03T09:44:47.111Z,1024.57
2023-05-03T09:45:47.155Z,1024.59
2023-05-03T09:46:47.111Z,1024.53
2023-05-03T09:47:47.132Z,1024.58
2023-05-03T09:48:47.074Z,1024.60
2023-05-03T09:49:47.066Z,1024.63
2023-05-03T09:50:47.075Z,1024.57
2023-05-03T09:51:47.049Z,1024.54
2023-05-03T09:52:47.054Z,1024.57
2023-05-03T09:53:47.043Z,1024.59
2023-05-03T09:54:47.077Z,1024.58
2023-05-03T09:55:47.073Z,1024.58
2023-05-03T09:56:47.035Z,1024.54
2023-05-03T09:57:47.019Z,1024.56
2023-05-03T09:58:47.015Z,1024.52
2023-05-03T09:59:47.006Z,1024.54
2023-05-03T10:00:47.000Z,1024.55
2023-05-03T10:01:47.038Z,1024.59
2023-05-03T10:02:46.998Z,1024.53
2023-05-03T10:03:47.006Z,1024.49
2023-05-03T10:04:46.980Z,1024.50
2023-05-03T10:05:46.978Z,1024.50
2023-05-03T10:06:47.041Z,1024.50
2023-05-03T10:07:46.966Z,1024.50
2023-05-03T10:08:46.958Z,1024.50
2023-05-03T10:09:46.959Z,1024.50
2023-05-03T10:10:46.942Z,1024.51
2023-05-03T10:11:46.942Z,1024.50
2023-05-03T10:12:46.935Z,1024.54
2023-05-03T10:13:46.925Z,1024.54
2023-05-03T10:14:46.922Z,1024.43
2023-05-03T10:15:46.934Z,1024.43
2023-05-03T10:16:46.908Z,1024.44
2023-05-03T10:17:48.465Z,1024.40
2023-05-03T10:18:46.897Z,1024.45
2023-05-03T10:19:46.898Z,1024.44
2023-05-03T10:20:46.884Z,1024.43
2023-05-03T10:21:46.884Z,1024.46
2023-05-03T10:22:46.868Z,1024.47
2023-05-03T10:23:46.871Z,1024.43
2023-05-03T10:24:46.871Z,1024.45
2023-05-03T10:25:46.862Z,1024.47
2023-05-03T10:26:46.855Z,1024.48
2023-05-03T10:27:46.865Z,1024.46
2023-05-03T10:28:46.880Z,1024.48
2023-05-03T10:29:46.834Z,1024.48
2023-05-03T10:30:46.822Z,1024.48
2023-05-03T10:31:47.042Z,1024.50
2023-05-03T10:32:46.834Z,1024.53
2023-05-03T10:33:46.813Z,1024.49
2023-05-03T10:34:46.808Z,1024.48
2023-05-03T10:35:46.800Z,1024.46
2023-05-03T10:36:49.756Z,1024.46
2023-05-03T10:37:46.856Z,1024.45
2023-05-03T10:38:46.781Z,1024.44
2023-05-03T10:39:46.768Z,1024.44
2023-05-03T10:40:46.764Z,1024.43
2023-05-03T10:41:46.771Z,1024.46
2023-05-03T10:42:46.753Z,1024.48
2023-05-03T10:43:46.749Z,1024.46
2023-05-03T10:44:46.746Z,1024.46
2023-05-03T10:45:48.808Z,1024.42
2023-05-03T10:46:46.833Z,1024.45
2023-05-03T10:47:46.753Z,1024.43
2023-05-03T10:48:46.720Z,1024.39
2023-05-03T10:49:46.716Z,1024.43
2023-05-03T10:50:46.718Z,1024.39
2023-05-03T10:51:46.706Z,1024.37
2023-05-03T10:52:46.694Z,1024.36
2023-05-03T10:53:46.697Z,1024.35
2023-05-03T10:54:46.685Z,1024.37
2023-05-03T10:55:46.677Z,1024.35
2023-05-03T10:56:46.842Z,1024.34
2023-05-03T10:57:46.679Z,1024.34
2023-05-03T10:58:46.665Z,1024.33
2023-05-03T10:59:46.657Z,1024.34
2023-05-03T11:00:46.651Z,1024.37
2023-05-03T11:01:46.682Z,1024.33
2023-05-03T11:02:46.666Z,1024.32
2023-05-03T11:03:46.630Z,1024.31
2023-05-03T11:04:46.640Z,1024.30
2023-05-03T11:05:46.646Z,1024.27
2023-05-03T11:06:46.668Z,1024.30
2023-05-03T11:07:46.607Z,1024.28
2023-05-03T11:08:46.609Z,1024.27
2023-05-03T11:09:47.705Z,1024.24
2023-05-03T11:10:46.589Z,1024.17
2023-05-03T11:11:46.592Z,1024.27
2023-05-03T11:12:46.635Z,1024.25
2023-05-03T11:13:46.600Z,1024.29
2023-05-03T11:14:46.568Z,1024.30
2023-05-03T11:15:48.307Z,1024.34
2023-05-03T11:16:46.588Z,1024.32
2023-05-03T11:17:46.576Z,1024.35
2023-05-03T11:18:46.535Z,1024.26
2023-05-03T11:19:46.529Z,1024.27
2023-05-03T11:20:46.523Z,1024.26
2023-05-03T11:21:47.104Z,1024.28
2023-05-03T11:22:46.518Z,1024.21
2023-05-03T11:23:46.509Z,1024.20
2023-05-03T11:24:46.509Z,1024.19
2023-05-03T11:25:46.490Z,1024.22
2023-05-03T11:26:46.505Z,1024.22
2023-05-03T11:27:47.809Z,1024.19
2023-05-03T11:28:46.474Z,1024.21
2023-05-03T11:29:46.469Z,1024.15
2023-05-03T11:30:46.461Z,1024.18
2023-05-03T11:31:46.511Z,1024.18
2023-05-03T11:32:46.481Z,1024.12
2023-05-03T11:33:48.048Z,1024.11
2023-05-03T11:34:46.434Z,1024.07
2023-05-03T11:35:46.424Z,1024.06
2023-05-03T11:36:46.426Z,1024.02
2023-05-03T11:37:46.415Z,1024.04
2023-05-03T11:38:46.414Z,1023.96
2023-05-03T11:39:46.402Z,1024.00
2023-05-03T11:40:46.412Z,1024.01
2023-05-03T11:41:46.387Z,1024.02
2023-05-03T11:42:46.383Z,1024.03
2023-05-03T11:43:46.378Z,1023.93
2023-05-03T11:44:46.390Z,1024.02
2023-05-03T11:45:46.543Z,1023.99
2023-05-03T11:46:46.500Z,1023.95
2023-05-03T11:47:46.401Z,1023.94
2023-05-03T11:48:46.371Z,1023.94
2023-05-03T11:49:46.339Z,1023.93
2023-05-03T11:50:46.349Z,1023.90
2023-05-03T11:51:48.653Z,1023.93
2023-05-03T11:52:46.332Z,1023.97
2023-05-03T11:53:46.316Z,1023.94
2023-05-03T11:54:46.307Z,1023.93
2023-05-03T11:55:46.306Z,1023.93
2023-05-03T11:56:46.295Z,1023.90
2023-05-03T11:57:46.295Z,1023.90
2023-05-03T11:58:46.288Z,1023.89
2023-05-03T11:59:46.283Z,1023.94
2023-05-03T12:00:46.417Z,1023.92
2023-05-03T12:01:46.273Z,1023.97
2023-05-03T12:02:46.449Z,1023.92
2023-05-03T12:03:46.428Z,1023.95
2023-05-03T12:04:46.673Z,1023.89
2023-05-03T12:05:46.616Z,1023.92